Andover, NJ

8:38 PM EST on January 28, 2015 (GMT -0500)
Andover | Change Station
CLOSE
Current Station
Airport
Location: Andover,
Elevation: 581 ft
Nearby Weather Stations

Elev 581 ft 41.01 °N, 74.74 °W | Updated 44 minutes ago

Clear
Clear
24 °F
Feels Like 17 °F
N
6
Wind Variable Wind from Variable
Gusts 13 mph

Today
High -- | Low -- °F
--% Chance of Precip.
Yesterday
High -- | Low -- °F
Precip. -- in
7:13 AM 5:10 PM
Waxing Gibbous, 69% visible
Pressure 30.27 in
Visibility -9999.0 miles
Clouds
Windchill 17 °F
Dew Point 1 °F
Humidity 37%
Rainfall 0.00 in
Snow Depth Not available.
UV Not available.
Pollen .10 out of 12
Air Quality Not available.
Flu Activity Not available.
METAR K12N 290054Z AUTO VRB05KT M04/M17 A3022 RMK AO1 SLP251 T10441172

More Conditions Fewer Conditions

Pressure 30.27 in
Visibility -9999.0 miles
Clouds
Windchill 17 °F
Dew Point 1 °F
Humidity 37%
Rainfall 0.00 in
Snow Depth Not available.
UV Not available.
Pollen .10 out of 12
Air Quality Not available.
Flu Activity Not available.
METAR K12N 290054Z AUTO VRB05KT M04/M17 A3022 RMK AO1 SLP251 T10441172

More Conditions Fewer Conditions

10-Day Weather Forecast

Almanac

Astronomy

Jan. 28, 2015 Rise Set
Actual Time
Civil Twilight
Nautical Twilight
Astronomical Twilight
Moon
Length of Visible Light
Length of Day
Tomorrow will be .
, % of the Moon is Illuminated

Today's Extremes

State Highs State Lows

Community

WunderPhotos

Upload Photos

1,791,321 photos uploaded!

WunderBlogs® & News

Nearby

Air Quality

  Air Quality AQ Index Pollutant
Not available.

Snow Depth

Station Depth Elevation

Earthquake Activity

City Distance Mag. Time & Date
Minimum magnitude displayed is 2.5.

Coastal Water Temperatures

Place Temperature

Nearby Weather Stations